sensor_id;sensor_type;location;lat;lon;timestamp;pressure;altitude;pressure_sealevel;temperature;humidity
45763;BME280;37512;52.408;13.356;2023-06-22T00:03:44;101372.84;;;20.47;100.00
45763;BME280;37512;52.408;13.356;2023-06-22T00:07:46;101374.47;;;20.45;100.00
45763;BME280;37512;52.408;13.356;2023-06-22T00:11:47;101366.44;;;20.43;100.00
45763;BME280;37512;52.408;13.356;2023-06-22T00:15:49;101378.56;;;20.40;100.00
45763;BME280;37512;52.408;13.356;2023-06-22T00:19:53;101387.56;;;20.24;100.00
45763;BME280;37512;52.408;13.356;2023-06-22T00:23:56;101385.81;;;20.41;100.00
45763;BME280;37512;52.408;13.356;2023-06-22T00:27:58;101395.94;;;20.32;100.00
45763;BME280;37512;52.408;13.356;2023-06-22T00:32:00;101400.00;;;20.27;100.00
45763;BME280;37512;52.408;13.356;2023-06-22T00:36:01;101399.22;;;20.26;100.00
45763;BME280;37512;52.408;13.356;2023-06-22T00:40:04;101406.09;;;20.25;100.00
45763;BME280;37512;52.408;13.356;2023-06-22T00:44:06;101401.09;;;20.44;100.00
45763;BME280;37512;52.408;13.356;2023-06-22T00:48:08;101394.59;;;20.51;100.00
45763;BME280;37512;52.408;13.356;2023-06-22T00:52:10;101395.47;;;20.40;100.00
45763;BME280;37512;52.408;13.356;2023-06-22T00:56:15;101399.41;;;20.50;100.00
45763;BME280;37512;52.408;13.356;2023-06-22T01:00:21;101408.22;;;20.56;100.00
45763;BME280;37512;52.408;13.356;2023-06-22T01:08:46;101399.47;;;20.43;100.00
45763;BME280;37512;52.408;13.356;2023-06-22T01:13:02;101407.47;;;20.48;100.00
45763;BME280;37512;52.408;13.356;2023-06-22T01:17:07;101412.28;;;20.51;100.00
45763;BME280;37512;52.408;13.356;2023-06-22T01:21:14;101410.72;;;20.46;100.00
45763;BME280;37512;52.408;13.356;2023-06-22T01:25:31;101403.44;;;20.49;100.00
45763;BME280;37512;52.408;13.356;2023-06-22T01:29:36;101406.66;;;20.51;100.00
45763;BME280;37512;52.408;13.356;2023-06-22T01:33:41;101413.13;;;20.48;100.00
45763;BME280;37512;52.408;13.356;2023-06-22T01:37:43;101424.78;;;20.50;100.00
45763;BME280;37512;52.408;13.356;2023-06-22T01:41:47;101426.84;;;20.46;100.00
45763;BME280;37512;52.408;13.356;2023-06-22T01:45:50;101428.91;;;20.42;100.00
45763;BME280;37512;52.408;13.356;2023-06-22T01:49:52;101429.56;;;20.08;100.00
45763;BME280;37512;52.408;13.356;2023-06-22T01:53:54;101432.78;;;20.10;100.00
45763;BME280;37512;52.408;13.356;2023-06-22T01:57:55;101428.44;;;19.98;100.00
45763;BME280;37512;52.408;13.356;2023-06-22T02:02:07;101429.00;;;19.64;100.00
45763;BME280;37512;52.408;13.356;2023-06-22T02:06:17;101432.19;;;19.70;100.00
45763;BME280;37512;52.408;13.356;2023-06-22T02:10:23;101432.16;;;19.81;100.00
45763;BME280;37512;52.408;13.356;2023-06-22T02:14:26;101442.56;;;19.88;100.00
45763;BME280;37512;52.408;13.356;2023-06-22T02:18:28;101440.50;;;19.99;100.00
45763;BME280;37512;52.408;13.356;2023-06-22T02:22:29;101455.97;;;19.69;100.00
45763;BME280;37512;52.408;13.356;2023-06-22T02:26:31;101454.34;;;19.64;100.00
45763;BME280;37512;52.408;13.356;2023-06-22T02:30:35;101440.06;;;20.04;100.00
45763;BME280;37512;52.408;13.356;2023-06-22T02:34:37;101442.00;;;20.14;100.00
45763;BME280;37512;52.408;13.356;2023-06-22T02:38:41;101433.16;;;20.09;100.00
45763;BME280;37512;52.408;13.356;2023-06-22T02:42:47;101442.41;;;20.13;100.00
45763;BME280;37512;52.408;13.356;2023-06-22T02:46:48;101449.16;;;20.22;100.00
45763;BME280;37512;52.408;13.356;2023-06-22T02:50:50;101454.00;;;20.22;100.00
45763;BME280;37512;52.408;13.356;2023-06-22T02:54:52;101446.78;;;20.21;100.00
45763;BME280;37512;52.408;13.356;2023-06-22T02:58:53;101441.56;;;20.16;100.00
45763;BME280;37512;52.408;13.356;2023-06-22T03:02:55;101446.53;;;20.01;100.00
45763;BME280;37512;52.408;13.356;2023-06-22T03:06:57;101452.19;;;19.94;100.00
45763;BME280;37512;52.408;13.356;2023-06-22T03:11:02;101448.16;;;19.98;100.00
45763;BME280;37512;52.408;13.356;2023-06-22T03:15:05;101442.56;;;19.88;100.00
45763;BME280;37512;52.408;13.356;2023-06-22T03:19:07;101438.03;;;20.04;100.00
45763;BME280;37512;52.408;13.356;2023-06-22T03:23:09;101441.50;;;19.56;100.00
45763;BME280;37512;52.408;13.356;2023-06-22T03:27:10;101438.28;;;19.61;100.00
45763;BME280;37512;52.408;13.356;2023-06-22T03:31:12;101444.72;;;19.62;100.00
45763;BME280;37512;52.408;13.356;2023-06-22T03:35:13;101452.31;;;19.76;100.00
45763;BME280;37512;52.408;13.356;2023-06-22T03:39:15;101454.78;;;19.56;100.00
45763;BME280;37512;52.408;13.356;2023-06-22T03:43:16;101447.47;;;19.76;100.00
45763;BME280;37512;52.408;13.356;2023-06-22T03:47:18;101445.38;;;19.88;100.00
45763;BME280;37512;52.408;13.356;2023-06-22T03:51:20;101449.38;;;19.94;100.00
45763;BME280;37512;52.408;13.356;2023-06-22T03:55:21;101447.09;;;19.63;100.00
45763;BME280;37512;52.408;13.356;2023-06-22T03:59:23;101456.84;;;19.44;100.00
45763;BME280;37512;52.408;13.356;2023-06-22T04:03:25;101463.22;;;19.56;100.00
45763;BME280;37512;52.408;13.356;2023-06-22T04:07:26;101466.06;;;19.52;100.00
45763;BME280;37512;52.408;13.356;2023-06-22T04:11:28;101457.16;;;19.61;100.00
45763;BME280;37512;52.408;13.356;2023-06-22T04:15:30;101461.94;;;19.82;100.00
45763;BME280;37512;52.408;13.356;2023-06-22T04:19:31;101461.50;;;19.87;100.00
45763;BME280;37512;52.408;13.356;2023-06-22T04:23:33;101469.22;;;19.76;100.00
45763;BME280;37512;52.408;13.356;2023-06-22T04:27:34;101469.06;;;19.97;100.00
45763;BME280;37512;52.408;13.356;2023-06-22T04:31:41;101478.81;;;19.85;100.00
45763;BME280;37512;52.408;13.356;2023-06-22T04:35:45;101480.28;;;20.04;100.00
45763;BME280;37512;52.408;13.356;2023-06-22T04:39:47;101489.53;;;20.09;100.00
45763;BME280;37512;52.408;13.356;2023-06-22T04:43:48;101505.28;;;19.99;100.00
45763;BME280;37512;52.408;13.356;2023-06-22T04:47:55;101492.44;;;19.94;100.00
45763;BME280;37512;52.408;13.356;2023-06-22T04:51:56;101493.59;;;20.04;100.00
45763;BME280;37512;52.408;13.356;2023-06-22T04:55:58;101495.09;;;20.19;100.00
45763;BME280;37512;52.408;13.356;2023-06-22T05:00:00;101492.19;;;20.34;100.00
45763;BME280;37512;52.408;13.356;2023-06-22T05:04:13;101486.53;;;20.37;100.00
45763;BME280;37512;52.408;13.356;2023-06-22T05:08:16;101487.44;;;20.76;100.00
45763;BME280;37512;52.408;13.356;2023-06-22T05:12:17;101483.16;;;20.60;100.00
45763;BME280;37512;52.408;13.356;2023-06-22T05:16:20;101480.19;;;20.75;100.00
45763;BME280;37512;52.408;13.356;2023-06-22T05:20:27;101489.72;;;20.92;100.00
45763;BME280;37512;52.408;13.356;2023-06-22T05:24:29;101498.97;;;20.92;100.00
45763;BME280;37512;52.408;13.356;2023-06-22T05:28:32;101506.13;;;21.00;100.00
45763;BME280;37512;52.408;13.356;2023-06-22T05:32:35;101497.78;;;21.27;100.00
45763;BME280;37512;52.408;13.356;2023-06-22T05:36:36;101495.84;;;21.21;100.00
45763;BME280;37512;52.408;13.356;2023-06-22T05:40:38;101497.34;;;21.33;100.00
45763;BME280;37512;52.408;13.356;2023-06-22T05:44:40;101505.84;;;21.67;100.00
45763;BME280;37512;52.408;13.356;2023-06-22T05:48:42;101521.38;;;21.82;100.00
45763;BME280;37512;52.408;13.356;2023-06-22T05:52:43;101515.00;;;21.78;100.00
45763;BME280;37512;52.408;13.356;2023-06-22T05:56:45;101514.03;;;21.58;100.00
45763;BME280;37512;52.408;13.356;2023-06-22T06:00:46;101522.88;;;21.90;100.00
45763;BME280;37512;52.408;13.356;2023-06-22T06:04:48;101509.97;;;21.59;100.00
45763;BME280;37512;52.408;13.356;2023-06-22T06:08:52;101511.84;;;21.69;100.00
45763;BME280;37512;52.408;13.356;2023-06-22T06:12:53;101515.81;;;21.75;100.00
45763;BME280;37512;52.408;13.356;2023-06-22T06:16:55;101515.19;;;21.91;100.00
45763;BME280;37512;52.408;13.356;2023-06-22T06:20:56;101505.16;;;22.17;100.00
45763;BME280;37512;52.408;13.356;2023-06-22T06:24:58;101504.72;;;22.46;100.00
45763;BME280;37512;52.408;13.356;2023-06-22T06:29:00;101513.28;;;22.42;100.00
45763;BME280;37512;52.408;13.356;2023-06-22T06:33:01;101524.66;;;22.62;100.00
45763;BME280;37512;52.408;13.356;2023-06-22T06:37:03;101525.47;;;22.86;100.00
45763;BME280;37512;52.408;13.356;2023-06-22T06:41:05;101525.72;;;23.19;100.00
45763;BME280;37512;52.408;13.356;2023-06-22T06:45:10;101516.44;;;23.18;100.00
45763;BME280;37512;52.408;13.356;2023-06-22T06:49:11;101509.88;;;23.02;96.07
45763;BME280;37512;52.408;13.356;2023-06-22T06:53:14;101521.56;;;23.04;99.63
45763;BME280;37512;52.408;13.356;2023-06-22T06:57:16;101519.91;;;23.06;94.75
45763;BME280;37512;52.408;13.356;2023-06-22T07:01:17;101495.72;;;23.02;99.15
45763;BME280;37512;52.408;13.356;2023-06-22T07:05:22;101498.22;;;23.20;99.13
45763;BME280;37512;52.408;13.356;2023-06-22T07:09:24;101493.44;;;23.36;89.25
45763;BME280;37512;52.408;13.356;2023-06-22T07:13:25;101478.03;;;23.57;89.24
45763;BME280;37512;52.408;13.356;2023-06-22T07:17:27;101470.53;;;23.67;89.21
45763;BME280;37512;52.408;13.356;2023-06-22T07:21:28;101473.66;;;23.93;87.54
45763;BME280;37512;52.408;13.356;2023-06-22T07:25:30;101477.53;;;23.99;84.93
45763;BME280;37512;52.408;13.356;2023-06-22T07:29:31;101466.72;;;23.94;85.46
45763;BME280;37512;52.408;13.356;2023-06-22T07:33:39;101465.75;;;23.84;86.61
45763;BME280;37512;52.408;13.356;2023-06-22T07:37:43;101463.13;;;24.26;79.63
45763;BME280;37512;52.408;13.356;2023-06-22T07:41:45;101463.84;;;24.47;74.63
45763;BME280;37512;52.408;13.356;2023-06-22T07:45:50;101472.47;;;24.43;71.26
45763;BME280;37512;52.408;13.356;2023-06-22T07:49:57;101476.63;;;24.38;75.02
45763;BME280;37512;52.408;13.356;2023-06-22T07:53:59;101475.50;;;24.69;74.51
45763;BME280;37512;52.408;13.356;2023-06-22T07:58:01;101471.69;;;24.59;74.35
45763;BME280;37512;52.408;13.356;2023-06-22T08:02:03;101476.78;;;24.80;72.66
45763;BME280;37512;52.408;13.356;2023-06-22T08:06:05;101483.03;;;24.75;69.26
45763;BME280;37512;52.408;13.356;2023-06-22T08:10:11;101480.19;;;24.59;72.06
45763;BME280;37512;52.408;13.356;2023-06-22T08:14:12;101475.94;;;24.51;70.03
45763;BME280;37512;52.408;13.356;2023-06-22T08:18:14;101475.31;;;24.43;70.54
45763;BME280;37512;52.408;13.356;2023-06-22T08:22:16;101471.75;;;24.39;78.19
45763;BME280;37512;52.408;13.356;2023-06-22T08:26:18;101470.34;;;24.47;68.22
45763;BME280;37512;52.408;13.356;2023-06-22T08:30:19;101458.66;;;24.61;75.20
45763;BME280;37512;52.408;13.356;2023-06-22T08:34:21;101469.94;;;24.94;69.23
45763;BME280;37512;52.408;13.356;2023-06-22T08:38:24;101472.53;;;25.18;72.78
45763;BME280;37512;52.408;13.356;2023-06-22T08:42:26;101459.59;;;25.17;65.57
45763;BME280;37512;52.408;13.356;2023-06-22T08:46:28;101469.50;;;24.96;63.61
45763;BME280;37512;52.408;13.356;2023-06-22T08:50:34;101468.34;;;24.93;62.98
45763;BME280;37512;52.408;13.356;2023-06-22T08:54:36;101466.75;;;24.92;63.39
45763;BME280;37512;52.408;13.356;2023-06-22T08:58:37;101475.84;;;25.16;62.12
45763;BME280;37512;52.408;13.356;2023-06-22T09:02:39;101476.59;;;25.33;61.88
45763;BME280;37512;52.408;13.356;2023-06-22T09:06:42;101466.47;;;25.61;63.75
45763;BME280;37512;52.408;13.356;2023-06-22T09:10:46;101458.88;;;25.97;60.56
45763;BME280;37512;52.408;13.356;2023-06-22T09:14:47;101460.91;;;25.71;62.33
45763;BME280;37512;52.408;13.356;2023-06-22T09:18:49;101460.91;;;26.09;63.48
45763;BME280;37512;52.408;13.356;2023-06-22T09:22:51;101455.66;;;25.69;63.25
45763;BME280;37512;52.408;13.356;2023-06-22T09:26:52;101467.19;;;25.91;66.04
45763;BME280;37512;52.408;13.356;2023-06-22T09:30:53;101456.06;;;26.10;59.84
45763;BME280;37512;52.408;13.356;2023-06-22T09:35:04;101462.25;;;25.79;64.53
45763;BME280;37512;52.408;13.356;2023-06-22T09:39:08;101454.47;;;25.54;60.16
45763;BME280;37512;52.408;13.356;2023-06-22T09:43:09;101450.41;;;25.55;62.83
45763;BME280;37512;52.408;13.356;2023-06-22T09:47:11;101445.06;;;25.70;64.57
45763;BME280;37512;52.408;13.356;2023-06-22T09:51:12;101443.50;;;26.20;61.31
45763;BME280;37512;52.408;13.356;2023-06-22T09:55:16;101434.28;;;26.16;62.85
45763;BME280;37512;52.408;13.356;2023-06-22T09:59:18;101446.94;;;26.15;58.44
45763;BME280;37512;52.408;13.356;2023-06-22T10:03:20;101448.97;;;25.88;58.14
45763;BME280;37512;52.408;13.356;2023-06-22T10:07:22;101438.03;;;26.38;58.40
45763;BME280;37512;52.408;13.356;2023-06-22T10:11:24;101446.50;;;26.16;55.50
45763;BME280;37512;52.408;13.356;2023-06-22T10:15:30;101444.53;;;26.13;56.10
45763;BME280;37512;52.408;13.356;2023-06-22T10:19:32;101445.44;;;26.36;61.65
45763;BME280;37512;52.408;13.356;2023-06-22T10:23:34;101440.31;;;26.31;56.60
45763;BME280;37512;52.408;13.356;2023-06-22T10:27:35;101428.59;;;26.41;55.05
45763;BME280;37512;52.408;13.356;2023-06-22T10:31:37;101429.91;;;26.49;54.67
45763;BME280;37512;52.408;13.356;2023-06-22T10:35:39;101426.09;;;26.18;56.10
45763;BME280;37512;52.408;13.356;2023-06-22T10:39:40;101425.97;;;26.34;52.78
45763;BME280;37512;52.408;13.356;2023-06-22T10:43:42;101425.50;;;27.40;51.44
45763;BME280;37512;52.408;13.356;2023-06-22T10:47:44;101420.13;;;28.14;48.05
45763;BME280;37512;52.408;13.356;2023-06-22T10:51:45;101420.09;;;28.54;46.18
45763;BME280;37512;52.408;13.356;2023-06-22T10:55:47;101416.50;;;28.23;47.05
45763;BME280;37512;52.408;13.356;2023-06-22T10:59:56;101403.41;;;29.36;47.06
45763;BME280;37512;52.408;13.356;2023-06-22T11:03:58;101407.00;;;29.55;44.90
45763;BME280;37512;52.408;13.356;2023-06-22T11:08:01;101402.69;;;30.02;44.38
45763;BME280;37512;52.408;13.356;2023-06-22T11:12:02;101390.22;;;29.90;46.22
45763;BME280;37512;52.408;13.356;2023-06-22T11:16:04;101394.19;;;29.32;43.14
45763;BME280;37512;52.408;13.356;2023-06-22T11:20:06;101378.53;;;29.70;45.20
45763;BME280;37512;52.408;13.356;2023-06-22T11:24:14;101369.31;;;29.99;43.07
45763;BME280;37512;52.408;13.356;2023-06-22T11:28:15;101369.22;;;30.66;42.21
45763;BME280;37512;52.408;13.356;2023-06-22T11:32:17;101365.91;;;30.10;40.68
45763;BME280;37512;52.408;13.356;2023-06-22T11:36:19;101362.34;;;30.48;41.13
45763;BME280;37512;52.408;13.356;2023-06-22T11:40:20;101369.66;;;29.92;42.95
45763;BME280;37512;52.408;13.356;2023-06-22T11:44:22;101374.84;;;30.36;40.78
45763;BME280;37512;52.408;13.356;2023-06-22T11:48:24;101387.75;;;30.94;40.97
45763;BME280;37512;52.408;13.356;2023-06-22T11:52:26;101392.31;;;31.16;41.48
45763;BME280;37512;52.408;13.356;2023-06-22T11:56:28;101381.97;;;31.98;36.65
45763;BME280;37512;52.408;13.356;2023-06-22T12:00:30;101379.63;;;32.38;38.01
45763;BME280;37512;52.408;13.356;2023-06-22T12:04:42;101372.06;;;32.20;37.25
45763;BME280;37512;52.408;13.356;2023-06-22T12:08:44;101369.72;;;31.83;36.91
45763;BME280;37512;52.408;13.356;2023-06-22T12:12:45;101351.47;;;31.06;39.63
45763;BME280;37512;52.408;13.356;2023-06-22T12:16:46;101346.72;;;30.88;38.52
45763;BME280;37512;52.408;13.356;2023-06-22T12:20:48;101344.16;;;30.51;38.03
45763;BME280;37512;52.408;13.356;2023-06-22T12:24:50;101340.53;;;31.04;37.87
45763;BME280;37512;52.408;13.356;2023-06-22T12:28:51;101335.06;;;31.21;37.03
45763;BME280;37512;52.408;13.356;2023-06-22T12:32:52;101328.31;;;31.89;37.20
45763;BME280;37512;52.408;13.356;2023-06-22T12:36:57;101321.00;;;31.38;37.62
45763;BME280;37512;52.408;13.356;2023-06-22T12:40:58;101315.53;;;31.91;36.48
45763;BME280;37512;52.408;13.356;2023-06-22T12:45:00;101317.56;;;31.84;35.75
45763;BME280;37512;52.408;13.356;2023-06-22T12:49:01;101300.38;;;32.25;36.68
45763;BME280;37512;52.408;13.356;2023-06-22T12:53:03;101293.41;;;32.32;36.69
45763;BME280;37512;52.408;13.356;2023-06-22T12:57:06;101296.03;;;32.56;35.83
45763;BME280;37512;52.408;13.356;2023-06-22T13:01:07;101287.69;;;32.58;35.91
45763;BME280;37512;52.408;13.356;2023-06-22T13:05:09;101285.66;;;32.90;34.14
45763;BME280;37512;52.408;13.356;2023-06-22T13:09:10;101272.16;;;32.50;35.20
45763;BME280;37512;52.408;13.356;2023-06-22T13:13:21;101271.91;;;32.48;36.75
45763;BME280;37512;52.408;13.356;2023-06-22T13:17:22;101273.59;;;33.12;36.58
45763;BME280;37512;52.408;13.356;2023-06-22T13:21:24;101271.78;;;33.15;33.34
45763;BME280;37512;52.408;13.356;2023-06-22T13:25:25;101269.31;;;33.77;34.62
45763;BME280;37512;52.408;13.356;2023-06-22T13:29:28;101259.19;;;33.50;33.30
45763;BME280;37512;52.408;13.356;2023-06-22T13:33:30;101251.28;;;33.82;34.39
45763;BME280;37512;52.408;13.356;2023-06-22T13:37:32;101246.63;;;33.96;34.90
45763;BME280;37512;52.408;13.356;2023-06-22T13:41:33;101237.13;;;32.98;34.14
45763;BME280;37512;52.408;13.356;2023-06-22T13:45:35;101226.84;;;34.15;34.87
45763;BME280;37512;52.408;13.356;2023-06-22T13:49:36;101213.34;;;33.78;34.04
45763;BME280;37512;52.408;13.356;2023-06-22T13:53:38;101202.44;;;33.50;34.19
45763;BME280;37512;52.408;13.356;2023-06-22T13:57:40;101205.56;;;34.01;34.74
45763;BME280;37512;52.408;13.356;2023-06-22T14:01:42;101198.09;;;34.54;32.33
45763;BME280;37512;52.408;13.356;2023-06-22T14:05:44;101194.03;;;33.95;34.75
45763;BME280;37512;52.408;13.356;2023-06-22T14:09:46;101184.88;;;34.03;34.11
45763;BME280;37512;52.408;13.356;2023-06-22T14:13:48;101182.22;;;33.88;34.86
45763;BME280;37512;52.408;13.356;2023-06-22T14:17:49;101175.13;;;33.23;34.49
45763;BME280;37512;52.408;13.356;2023-06-22T14:21:51;101169.84;;;33.65;34.00
45763;BME280;37512;52.408;13.356;2023-06-22T14:25:53;101172.66;;;32.73;36.61
45763;BME280;37512;52.408;13.356;2023-06-22T14:29:54;101185.09;;;33.82;34.53
45763;BME280;37512;52.408;13.356;2023-06-22T14:34:10;101169.59;;;33.68;34.37
45763;BME280;37512;52.408;13.356;2023-06-22T14:38:15;101159.81;;;33.54;34.63
45763;BME280;37512;52.408;13.356;2023-06-22T14:42:24;101136.88;;;33.66;35.55
45763;BME280;37512;52.408;13.356;2023-06-22T14:46:37;101124.72;;;34.16;34.53
45763;BME280;37512;52.408;13.356;2023-06-22T14:50:38;101101.56;;;33.05;35.40
45763;BME280;37512;52.408;13.356;2023-06-22T14:54:40;101106.38;;;33.31;35.14
45763;BME280;37512;52.408;13.356;2023-06-22T14:58:42;101103.78;;;34.27;34.00
45763;BME280;37512;52.408;13.356;2023-06-22T15:02:48;101089.91;;;34.20;34.90
45763;BME280;37512;52.408;13.356;2023-06-22T15:06:50;101092.22;;;34.89;33.54
45763;BME280;37512;52.408;13.356;2023-06-22T15:10:52;101083.38;;;33.31;35.02
45763;BME280;37512;52.408;13.356;2023-06-22T15:14:53;101090.06;;;33.65;34.92
45763;BME280;37512;52.408;13.356;2023-06-22T15:18:55;101082.88;;;33.38;35.81
45763;BME280;37512;52.408;13.356;2023-06-22T15:22:57;101088.41;;;32.99;35.34
45763;BME280;37512;52.408;13.356;2023-06-22T15:26:58;101084.88;;;33.21;35.58
45763;BME280;37512;52.408;13.356;2023-06-22T15:31:00;101072.56;;;33.80;34.48
45763;BME280;37512;52.408;13.356;2023-06-22T15:35:02;101058.91;;;32.98;35.61
45763;BME280;37512;52.408;13.356;2023-06-22T15:39:04;101050.97;;;33.36;36.00
45763;BME280;37512;52.408;13.356;2023-06-22T15:43:05;101038.44;;;33.39;35.27
45763;BME280;37512;52.408;13.356;2023-06-22T15:47:07;101030.75;;;32.33;36.77
45763;BME280;37512;52.408;13.356;2023-06-22T15:51:08;101030.03;;;31.80;38.24
45763;BME280;37512;52.408;13.356;2023-06-22T15:55:10;101038.97;;;30.65;40.01
45763;BME280;37512;52.408;13.356;2023-06-22T15:59:11;101038.25;;;30.85;40.84
45763;BME280;37512;52.408;13.356;2023-06-22T16:03:13;101043.22;;;31.05;40.12
45763;BME280;37512;52.408;13.356;2023-06-22T16:07:15;101032.94;;;32.12;40.14
45763;BME280;37512;52.408;13.356;2023-06-22T16:11:17;101008.16;;;31.88;40.47
45763;BME280;37512;52.408;13.356;2023-06-22T16:15:18;100986.91;;;32.33;37.60
45763;BME280;37512;52.408;13.356;2023-06-22T16:19:20;100997.59;;;32.69;38.50
45763;BME280;37512;52.408;13.356;2023-06-22T16:23:21;100984.97;;;32.56;37.34
45763;BME280;37512;52.408;13.356;2023-06-22T16:27:23;100968.69;;;31.52;39.05
45763;BME280;37512;52.408;13.356;2023-06-22T16:31:26;100960.44;;;31.59;40.03
45763;BME280;37512;52.408;13.356;2023-06-22T16:35:29;100953.16;;;30.91;42.58
45763;BME280;37512;52.408;13.356;2023-06-22T16:39:30;100941.16;;;30.72;42.59
45763;BME280;37512;52.408;13.356;2023-06-22T16:43:31;100947.28;;;29.94;44.36
45763;BME280;37512;52.408;13.356;2023-06-22T16:47:33;100939.97;;;29.49;43.91
45763;BME280;37512;52.408;13.356;2023-06-22T16:51:36;100936.72;;;29.26;46.49
45763;BME280;37512;52.408;13.356;2023-06-22T16:55:38;100929.13;;;28.84;46.63
45763;BME280;37512;52.408;13.356;2023-06-22T16:59:41;100940.16;;;28.91;47.68
45763;BME280;37512;52.408;13.356;2023-06-22T17:03:44;100942.41;;;28.87;47.35
45763;BME280;37512;52.408;13.356;2023-06-22T17:07:52;100920.91;;;28.53;50.93
45763;BME280;37512;52.408;13.356;2023-06-22T17:11:55;100922.16;;;28.28;53.37
45763;BME280;37512;52.408;13.356;2023-06-22T17:15:59;100916.53;;;28.43;51.71
45763;BME280;37512;52.408;13.356;2023-06-22T17:20:02;100934.50;;;28.34;51.64
45763;BME280;37512;52.408;13.356;2023-06-22T17:24:05;100920.94;;;28.20;52.38
45763;BME280;37512;52.408;13.356;2023-06-22T17:28:07;100916.50;;;28.19;50.89
45763;BME280;37512;52.408;13.356;2023-06-22T17:32:08;100892.59;;;27.73;58.41
45763;BME280;37512;52.408;13.356;2023-06-22T17:36:12;100897.81;;;27.75;59.12
45763;BME280;37512;52.408;13.356;2023-06-22T17:40:16;100894.22;;;28.08;51.91
45763;BME280;37512;52.408;13.356;2023-06-22T17:44:22;100896.41;;;27.70;57.31
45763;BME280;37512;52.408;13.356;2023-06-22T17:48:24;100875.50;;;27.64;55.64
45763;BME280;37512;52.408;13.356;2023-06-22T17:52:26;100854.00;;;27.54;58.92
45763;BME280;37512;52.408;13.356;2023-06-22T17:56:28;100850.22;;;27.48;58.86
45763;BME280;37512;52.408;13.356;2023-06-22T18:00:31;100851.19;;;27.45;57.56
45763;BME280;37512;52.408;13.356;2023-06-22T18:04:33;100837.75;;;27.36;57.34
45763;BME280;37512;52.408;13.356;2023-06-22T18:08:35;100813.94;;;26.97;59.08
45763;BME280;37512;52.408;13.356;2023-06-22T18:12:38;100808.56;;;26.89;58.93
45763;BME280;37512;52.408;13.356;2023-06-22T18:16:43;100834.53;;;26.82;59.87
45763;BME280;37512;52.408;13.356;2023-06-22T18:20:46;100826.13;;;26.69;58.24
45763;BME280;37512;52.408;13.356;2023-06-22T18:24:51;100818.03;;;26.86;59.47
45763;BME280;37512;52.408;13.356;2023-06-22T18:28:56;100842.56;;;26.93;59.21
45763;BME280;37512;52.408;13.356;2023-06-22T18:32:58;100848.28;;;26.65;60.84
45763;BME280;37512;52.408;13.356;2023-06-22T18:37:02;100846.19;;;26.66;59.68
45763;BME280;37512;52.408;13.356;2023-06-22T18:41:05;100824.03;;;26.42;61.93
45763;BME280;37512;52.408;13.356;2023-06-22T18:45:24;100814.53;;;26.36;60.41
45763;BME280;37512;52.408;13.356;2023-06-22T18:53:34;100780.25;;;26.31;60.77
45763;BME280;37512;52.408;13.356;2023-06-22T18:57:35;100757.47;;;26.12;61.63
45763;BME280;37512;52.408;13.356;2023-06-22T19:01:38;100754.63;;;26.03;62.01
45763;BME280;37512;52.408;13.356;2023-06-22T19:05:41;100749.06;;;25.90;61.38
45763;BME280;37512;52.408;13.356;2023-06-22T19:14:25;100769.53;;;25.76;62.86
45763;BME280;37512;52.408;13.356;2023-06-22T19:18:35;100765.44;;;25.86;61.66
45763;BME280;37512;52.408;13.356;2023-06-22T19:23:05;100768.41;;;25.64;62.74
45763;BME280;37512;52.408;13.356;2023-06-22T19:27:07;100774.13;;;25.73;61.64
45763;BME280;37512;52.408;13.356;2023-06-22T19:31:09;100777.44;;;25.72;62.46
45763;BME280;37512;52.408;13.356;2023-06-22T19:35:10;100771.38;;;25.60;61.91
45763;BME280;37512;52.408;13.356;2023-06-22T19:39:13;100768.88;;;25.62;61.65
45763;BME280;37512;52.408;13.356;2023-06-22T19:43:15;100758.69;;;25.43;63.45
45763;BME280;37512;52.408;13.356;2023-06-22T19:47:19;100745.31;;;25.53;63.05
45763;BME280;37512;52.408;13.356;2023-06-22T19:51:21;100742.91;;;25.42;62.11
45763;BME280;37512;52.408;13.356;2023-06-22T19:55:23;100729.31;;;25.37;63.97
45763;BME280;37512;52.408;13.356;2023-06-22T19:59:25;100710.59;;;25.17;66.85
45763;BME280;37512;52.408;13.356;2023-06-22T20:03:30;100686.59;;;25.09;71.47
45763;BME280;37512;52.408;13.356;2023-06-22T20:07:37;100677.88;;;24.72;73.82
45763;BME280;37512;52.408;13.356;2023-06-22T20:11:38;100713.06;;;24.53;77.56
45763;BME280;37512;52.408;13.356;2023-06-22T20:15:42;100742.03;;;24.13;88.44
45763;BME280;37512;52.408;13.356;2023-06-22T20:19:44;100769.41;;;23.81;94.71
45763;BME280;37512;52.408;13.356;2023-06-22T20:23:46;100970.63;;;23.39;98.77
45763;BME280;37512;52.408;13.356;2023-06-22T20:27:51;101006.22;;;21.05;100.00
45763;BME280;37512;52.408;13.356;2023-06-22T20:32:10;101030.50;;;19.15;100.00
45763;BME280;37512;52.408;13.356;2023-06-22T20:36:12;70141.72;;;-146.77;100.00
45763;BME280;37512;52.408;13.356;2023-06-22T20:40:17;100956.31;;;42.38;100.00
45763;BME280;37512;52.408;13.356;2023-06-22T20:44:19;100874.38;;;41.88;38.59
45763;BME280;37512;52.408;13.356;2023-06-22T20:48:21;100867.03;;;40.45;34.46
45763;BME280;37512;52.408;13.356;2023-06-22T20:52:38;100881.72;;;41.35;32.19
45763;BME280;37512;52.408;13.356;2023-06-22T20:56:43;100888.91;;;41.34;31.84
45763;BME280;37512;52.408;13.356;2023-06-22T21:00:46;100913.44;;;45.44;27.42